createdAt,value
2019-05-19T00:00:39.872Z,0
2019-05-19T00:01:39.929Z,0
2019-05-19T00:02:43.143Z,0
2019-05-19T00:03:39.845Z,0
2019-05-19T00:04:39.877Z,0
2019-05-19T00:05:39.829Z,0
2019-05-19T00:06:39.580Z,0
2019-05-19T00:07:39.860Z,0
2019-05-19T00:08:39.812Z,0
2019-05-19T00:09:39.803Z,0
2019-05-19T00:10:39.554Z,0
2019-05-19T00:11:39.782Z,0
2019-05-19T00:12:39.794Z,0
2019-05-19T00:13:39.770Z,0
2019-05-19T00:14:39.526Z,0
2019-05-19T00:15:39.757Z,0
2019-05-19T00:16:39.743Z,0
2019-05-19T00:17:39.770Z,0
2019-05-19T00:18:39.729Z,0
2019-05-19T00:19:39.719Z,0
2019-05-19T00:20:39.713Z,0
2019-05-19T00:21:54.375Z,0
2019-05-19T00:22:39.705Z,0
2019-05-19T00:23:39.690Z,0
2019-05-19T00:24:39.682Z,0
2019-05-19T00:25:39.664Z,0
2019-05-19T00:26:39.681Z,0
2019-05-19T00:27:39.671Z,0
2019-05-19T00:28:39.684Z,0
2019-05-19T00:29:39.408Z,0
2019-05-19T00:30:39.644Z,0
2019-05-19T00:31:39.634Z,0
2019-05-19T00:32:39.617Z,0
2019-05-19T00:33:39.612Z,0
2019-05-19T00:34:39.605Z,0
2019-05-19T00:35:39.686Z,0
2019-05-19T00:36:45.603Z,0
2019-05-19T00:37:39.578Z,0
2019-05-19T00:38:39.568Z,0
2019-05-19T00:39:39.607Z,0
2019-05-19T00:40:39.310Z,0
2019-05-19T00:41:39.305Z,0
2019-05-19T00:42:39.545Z,0
2019-05-19T00:43:39.603Z,0
2019-05-19T00:44:39.520Z,0
2019-05-19T00:45:39.518Z,0
2019-05-19T00:46:39.512Z,0
2019-05-19T00:47:39.499Z,0
2019-05-19T00:48:39.494Z,0
2019-05-19T00:49:48.475Z,0
2019-05-19T00:50:39.476Z,0
2019-05-19T00:51:45.737Z,0
2019-05-19T00:52:39.464Z,0
2019-05-19T00:53:39.448Z,0
2019-05-19T00:54:39.448Z,0
2019-05-19T00:55:39.500Z,0
2019-05-19T00:56:39.430Z,0
2019-05-19T00:57:39.444Z,0
2019-05-19T00:58:39.407Z,0
2019-05-19T00:59:39.399Z,0
2019-05-19T01:00:39.824Z,0
2019-05-19T01:01:39.387Z,0
2019-05-19T01:02:39.379Z,0
2019-05-19T01:03:39.363Z,0
2019-05-19T01:04:39.359Z,0
2019-05-19T01:05:39.350Z,0
2019-05-19T01:06:39.342Z,0
2019-05-19T01:07:39.352Z,0
2019-05-19T01:08:39.328Z,0
2019-05-19T01:09:39.335Z,0
2019-05-19T01:10:39.305Z,0
2019-05-19T01:11:39.354Z,0
2019-05-19T01:12:39.306Z,0
2019-05-19T01:13:39.040Z,0
2019-05-19T01:14:39.275Z,0
2019-05-19T01:15:39.288Z,0
2019-05-19T01:16:39.257Z,0
2019-05-19T01:17:38.783Z,0
2019-05-19T01:18:39.269Z,0
2019-05-19T01:19:39.241Z,0
2019-05-19T01:20:39.225Z,0
2019-05-19T01:21:39.218Z,0
2019-05-19T01:22:39.222Z,0
2019-05-19T01:23:39.201Z,0
2019-05-19T01:24:39.204Z,0
2019-05-19T01:25:39.220Z,0
2019-05-19T01:26:38.968Z,0
2019-05-19T01:27:39.166Z,0
2019-05-19T01:28:39.161Z,0
2019-05-19T01:29:39.153Z,0
2019-05-19T01:30:39.209Z,0
2019-05-19T01:31:39.155Z,0
2019-05-19T01:32:39.123Z,0
2019-05-19T01:33:39.130Z,0
2019-05-19T01:34:39.111Z,0
2019-05-19T01:35:40.373Z,0
2019-05-19T01:36:39.112Z,0
2019-05-19T01:37:39.277Z,0
2019-05-19T01:38:39.077Z,0
2019-05-19T01:39:39.111Z,0
2019-05-19T01:40:39.057Z,0
2019-05-19T01:41:39.245Z,0
2019-05-19T01:42:39.051Z,0
2019-05-19T01:43:40.513Z,0
2019-05-19T01:44:38.803Z,0
2019-05-19T01:45:39.022Z,0
2019-05-19T01:46:39.015Z,0
2019-05-19T01:47:39.013Z,0
2019-05-19T01:48:39.008Z,0
2019-05-19T01:49:38.740Z,0
2019-05-19T01:50:38.991Z,0
2019-05-19T01:51:38.972Z,0
2019-05-19T01:52:38.960Z,0
2019-05-19T01:53:38.963Z,0
2019-05-19T01:54:38.959Z,0
2019-05-19T01:55:38.938Z,0
2019-05-19T01:56:38.686Z,0
2019-05-19T01:57:38.924Z,0
2019-05-19T01:58:38.915Z,0
2019-05-19T01:59:38.907Z,0
2019-05-19T02:00:38.896Z,0
2019-05-19T02:01:38.926Z,0
2019-05-19T02:02:51.609Z,0
2019-05-19T02:03:38.868Z,0
2019-05-19T02:04:38.877Z,0
2019-05-19T02:05:38.858Z,0
2019-05-19T02:06:38.848Z,0
2019-05-19T02:07:38.733Z,0
2019-05-19T02:08:38.825Z,0
2019-05-19T02:09:38.843Z,0
2019-05-19T02:10:38.806Z,0
2019-05-19T02:11:38.860Z,0
2019-05-19T02:12:38.797Z,0
2019-05-19T02:13:38.785Z,0
2019-05-19T02:14:38.777Z,0
2019-05-19T02:15:38.772Z,0
2019-05-19T02:16:38.771Z,0
2019-05-19T02:17:38.753Z,0
2019-05-19T02:18:38.747Z,0
2019-05-19T02:19:38.733Z,0
2019-05-19T02:20:40.899Z,4
2019-05-19T02:21:38.717Z,4
2019-05-19T02:22:38.717Z,4
2019-05-19T02:23:51.453Z,0
2019-05-19T02:24:38.698Z,4
2019-05-19T02:25:38.688Z,4
2019-05-19T02:26:38.691Z,4
2019-05-19T02:27:38.663Z,8
2019-05-19T02:28:38.410Z,4
2019-05-19T02:29:38.406Z,8
2019-05-19T02:30:38.667Z,8
2019-05-19T02:31:38.687Z,8
2019-05-19T02:32:38.651Z,12
2019-05-19T02:33:42.733Z,12
2019-05-19T02:34:38.623Z,12
2019-05-19T02:35:38.619Z,12
2019-05-19T02:36:38.600Z,12
2019-05-19T02:37:38.592Z,16
2019-05-19T02:38:38.575Z,20
2019-05-19T02:39:38.581Z,20
2019-05-19T02:41:38.549Z,28
2019-05-19T02:42:38.546Z,32
2019-05-19T02:43:38.541Z,36
2019-05-19T02:44:38.615Z,44
2019-05-19T02:45:38.282Z,44
2019-05-19T02:46:38.540Z,52
2019-05-19T02:47:38.501Z,60
2019-05-19T02:48:38.241Z,68
2019-05-19T02:49:38.480Z,72
2019-05-19T02:50:56.265Z,84
2019-05-19T02:51:38.234Z,92
2019-05-19T02:52:38.262Z,104
2019-05-19T02:53:38.455Z,116
2019-05-19T02:54:38.435Z,128
2019-05-19T02:55:38.429Z,144
2019-05-19T02:56:38.424Z,164
2019-05-19T02:57:38.419Z,184
2019-05-19T02:58:38.417Z,212
2019-05-19T02:59:38.408Z,240
2019-05-19T03:00:38.387Z,268
2019-05-19T03:01:38.392Z,300
2019-05-19T03:02:38.378Z,328
2019-05-19T03:03:38.373Z,356
2019-05-19T03:04:38.407Z,388
2019-05-19T03:05:38.347Z,424
2019-05-19T03:06:38.340Z,456
2019-05-19T03:07:38.358Z,488
2019-05-19T03:08:38.316Z,520
2019-05-19T03:09:38.317Z,548
2019-05-19T03:10:38.326Z,588
2019-05-19T03:11:38.295Z,620
2019-05-19T03:12:38.279Z,652
2019-05-19T03:13:38.314Z,688
2019-05-19T03:14:38.295Z,728
2019-05-19T03:15:38.357Z,772
2019-05-19T03:16:38.260Z,824
2019-05-19T03:17:38.260Z,884
2019-05-19T03:18:37.987Z,948
2019-05-19T03:19:38.255Z,1008
2019-05-19T03:20:38.230Z,1076
2019-05-19T03:21:38.212Z,1140
2019-05-19T03:22:38.234Z,1204
2019-05-19T03:23:38.189Z,1276
2019-05-19T03:24:38.209Z,1352
2019-05-19T03:25:38.185Z,1440
2019-05-19T03:26:38.195Z,1532
2019-05-19T03:27:37.928Z,1632
2019-05-19T03:28:38.175Z,1736
2019-05-19T03:29:38.153Z,1840
2019-05-19T03:30:38.180Z,1940
2019-05-19T03:31:38.179Z,2044
2019-05-19T03:32:38.138Z,2148
2019-05-19T03:33:38.157Z,2248
2019-05-19T03:34:38.039Z,2356
2019-05-19T03:35:38.136Z,2468
2019-05-19T03:36:38.099Z,2580
2019-05-19T03:37:38.099Z,2700
2019-05-19T03:38:38.075Z,2820
2019-05-19T03:39:38.078Z,2944
2019-05-19T03:40:38.074Z,3088
2019-05-19T03:41:38.036Z,3272
2019-05-19T03:42:38.055Z,3488
2019-05-19T03:43:38.037Z,3660
2019-05-19T03:44:38.044Z,3756
2019-05-19T03:45:38.023Z,3804
2019-05-19T03:46:38.063Z,3868
2019-05-19T03:47:38.002Z,3936
2019-05-19T03:48:37.762Z,3996
2019-05-19T03:49:38.035Z,4088
2019-05-19T03:50:37.970Z,4432
2019-05-19T03:51:39.135Z,4664
2019-05-19T03:52:37.962Z,4616
2019-05-19T03:53:37.974Z,4568
2019-05-19T03:54:37.945Z,4800
2019-05-19T03:55:37.940Z,4900
2019-05-19T03:56:37.934Z,4980
2019-05-19T03:57:37.937Z,5140
2019-05-19T03:58:37.696Z,5040
2019-05-19T03:59:37.904Z,5228
2019-05-19T04:00:37.938Z,5716
2019-05-19T04:01:37.896Z,6008
2019-05-19T04:02:37.887Z,6456
2019-05-19T04:03:37.900Z,6924
2019-05-19T04:04:37.642Z,7136
2019-05-19T04:05:37.955Z,7448
2019-05-19T04:06:37.898Z,7664
2019-05-19T04:07:37.914Z,7808
2019-05-19T04:08:37.874Z,7780
2019-05-19T04:09:37.854Z,7964
2019-05-19T04:10:37.848Z,8168
2019-05-19T04:11:37.850Z,8324
2019-05-19T04:12:37.589Z,8624
2019-05-19T04:13:37.838Z,8928
2019-05-19T04:14:37.596Z,9264
2019-05-19T04:15:37.840Z,9932
2019-05-19T04:16:37.825Z,9928
2019-05-19T04:17:37.814Z,10428
2019-05-19T04:18:37.866Z,10012
2019-05-19T04:19:37.832Z,10264
2019-05-19T04:20:37.820Z,10448
2019-05-19T04:21:55.459Z,10296
2019-05-19T04:22:37.840Z,10084
2019-05-19T04:23:37.826Z,9180
2019-05-19T04:24:37.789Z,8488
2019-05-19T04:26:37.794Z,8808
2019-05-19T04:27:37.797Z,9900
2019-05-19T04:28:39.460Z,11176
2019-05-19T04:29:41.689Z,11364
2019-05-19T04:30:37.784Z,12308
2019-05-19T04:31:37.574Z,12424
2019-05-19T04:32:37.881Z,10236
2019-05-19T04:33:37.794Z,10756
2019-05-19T04:34:37.788Z,10612
2019-05-19T04:35:37.796Z,10500
2019-05-19T04:36:37.769Z,9892
2019-05-19T04:37:37.771Z,9804
2019-05-19T04:38:37.840Z,9584
2019-05-19T04:39:37.794Z,9568
2019-05-19T04:40:37.782Z,9612
2019-05-19T04:41:40.127Z,9940
2019-05-19T04:42:37.776Z,10256
2019-05-19T04:43:37.762Z,10708
2019-05-19T04:44:37.797Z,11752
2019-05-19T04:45:37.541Z,14528
2019-05-19T04:46:37.784Z,16672
2019-05-19T04:47:37.771Z,16800
2019-05-19T04:48:37.752Z,18624
2019-05-19T04:49:37.747Z,17696
2019-05-19T04:50:37.764Z,17504
2019-05-19T04:51:37.769Z,13608
2019-05-19T04:52:37.752Z,15552
2019-05-19T04:53:37.757Z,15616
2019-05-19T04:54:37.742Z,16288
2019-05-19T04:55:37.804Z,16480
2019-05-19T04:56:37.760Z,14880
2019-05-19T04:57:37.753Z,13728
2019-05-19T04:58:37.753Z,12460
2019-05-19T04:59:37.740Z,12332
2019-05-19T05:00:37.755Z,11652
2019-05-19T05:01:37.750Z,11392
2019-05-19T05:02:37.751Z,11252
2019-05-19T05:03:37.749Z,11572
2019-05-19T05:04:37.746Z,11600
2019-05-19T05:05:37.760Z,12624
2019-05-19T05:06:37.757Z,14752
2019-05-19T05:07:37.761Z,17472
2019-05-19T05:08:38.108Z,15200
2019-05-19T05:09:37.765Z,12884
2019-05-19T05:10:37.745Z,11428
2019-05-19T05:11:37.741Z,11932
2019-05-19T05:12:37.742Z,11160
2019-05-19T05:13:37.744Z,11728
2019-05-19T05:14:37.504Z,14656
2019-05-19T05:15:37.750Z,15872
2019-05-19T05:16:37.750Z,16672
2019-05-19T05:17:37.785Z,17504
2019-05-19T05:18:37.736Z,21664
2019-05-19T05:19:37.737Z,24896
2019-05-19T05:20:37.743Z,23200
2019-05-19T05:21:37.734Z,19744
2019-05-19T05:22:37.733Z,21664
2019-05-19T05:23:37.730Z,23488
2019-05-19T05:24:39.003Z,22432
2019-05-19T05:25:37.779Z,20352
2019-05-19T05:26:37.745Z,20704
2019-05-19T05:27:37.765Z,23488
2019-05-19T05:28:37.739Z,26784
2019-05-19T05:29:37.747Z,28160
2019-05-19T05:30:37.737Z,28288
2019-05-19T05:31:37.739Z,28960
2019-05-19T05:32:37.739Z,28864
2019-05-19T05:33:37.761Z,28896
2019-05-19T05:34:37.751Z,32096
2019-05-19T05:35:37.755Z,32128
2019-05-19T05:36:37.751Z,31072
2019-05-19T05:37:37.750Z,29792
2019-05-19T05:38:37.747Z,31744
2019-05-19T05:39:37.763Z,35680
2019-05-19T05:40:37.759Z,36704
2019-05-19T05:41:37.766Z,33504
2019-05-19T05:42:39.181Z,29856
2019-05-19T05:43:37.774Z,31680
2019-05-19T05:44:37.778Z,36832
2019-05-19T05:45:37.819Z,39488
2019-05-19T05:46:37.789Z,33888
2019-05-19T05:47:37.793Z,30528
2019-05-19T05:48:37.807Z,32384
2019-05-19T05:49:37.580Z,37952
2019-05-19T05:50:37.821Z,39904
2019-05-19T05:51:37.819Z,36544
2019-05-19T05:52:45.877Z,27616
2019-05-19T05:53:37.835Z,27456
2019-05-19T05:54:37.854Z,28032
2019-05-19T05:55:37.859Z,25632
2019-05-19T05:56:37.624Z,18496
2019-05-19T05:57:37.877Z,16384
2019-05-19T05:58:37.890Z,22624
2019-05-19T05:59:37.894Z,32864
2019-05-19T06:00:37.904Z,40320
2019-05-19T06:01:37.906Z,35968
2019-05-19T06:02:37.910Z,38240
2019-05-19T06:03:37.919Z,36640
2019-05-19T06:04:37.682Z,37408
2019-05-19T06:05:37.954Z,41216
2019-05-19T06:06:37.938Z,43040
2019-05-19T06:07:40.520Z,44352
2019-05-19T06:08:37.966Z,38240
2019-05-19T06:09:37.962Z,32576
2019-05-19T06:10:37.981Z,35456
2019-05-19T06:11:37.987Z,41664
2019-05-19T06:12:38.017Z,41760
2019-05-19T06:13:37.997Z,37472
2019-05-19T06:14:38.010Z,35776
2019-05-19T06:15:38.056Z,37344
2019-05-19T06:16:38.030Z,39424
2019-05-19T06:17:38.085Z,39424
2019-05-19T06:18:38.051Z,37600
2019-05-19T06:19:38.074Z,35392
2019-05-19T06:20:38.074Z,33280
2019-05-19T06:21:38.089Z,32800
2019-05-19T06:22:53.075Z,33504
2019-05-19T06:24:38.133Z,28768
2019-05-19T06:25:38.726Z,26720
2019-05-19T06:26:37.906Z,27008
2019-05-19T06:27:38.147Z,33152
2019-05-19T06:28:38.168Z,43424
2019-05-19T06:29:38.189Z,50688
2019-05-19T06:30:38.204Z,52640
2019-05-19T06:31:38.244Z,48480
2019-05-19T06:32:37.992Z,44768
2019-05-19T06:33:38.227Z,45152
2019-05-19T06:34:38.244Z,49696
2019-05-19T06:35:38.252Z,55136
2019-05-19T06:36:38.263Z,60224
2019-05-19T06:37:38.282Z,64896
2019-05-19T06:38:38.099Z,67520
2019-05-19T06:39:38.307Z,66272
2019-05-19T06:40:38.348Z,61024
2019-05-19T06:41:38.332Z,59264
2019-05-19T06:42:38.358Z,61280
2019-05-19T06:43:38.372Z,65152
2019-05-19T06:44:38.369Z,66752
2019-05-19T06:45:38.251Z,69152
2019-05-19T06:46:38.423Z,72608
2019-05-19T06:47:38.449Z,75936
2019-05-19T06:48:38.438Z,77216
2019-05-19T06:49:38.208Z,74240
2019-05-19T06:50:42.938Z,68128
2019-05-19T06:51:38.477Z,65696
2019-05-19T06:52:38.495Z,64800
2019-05-19T06:53:38.533Z,63904
2019-05-19T06:54:38.042Z,63840
2019-05-19T06:55:38.756Z,64640
2019-05-19T06:56:38.548Z,62848
2019-05-19T06:57:38.579Z,63456
2019-05-19T06:58:38.576Z,65280
2019-05-19T06:59:38.588Z,70400
2019-05-19T07:00:38.603Z,73536
2019-05-19T07:01:38.632Z,75264
2019-05-19T07:02:38.651Z,71488
2019-05-19T07:03:38.653Z,72000
2019-05-19T07:04:38.710Z,71744
2019-05-19T07:05:38.704Z,70816
2019-05-19T07:06:41.416Z,70752
2019-05-19T07:07:38.704Z,70432
2019-05-19T07:08:38.489Z,66528
2019-05-19T07:09:38.880Z,64800
2019-05-19T07:10:38.758Z,68864
2019-05-19T07:11:38.550Z,71424
2019-05-19T07:12:38.779Z,67360
2019-05-19T07:13:38.805Z,64352
2019-05-19T07:14:38.846Z,68256
2019-05-19T07:15:38.840Z,71840
2019-05-19T07:16:38.853Z,68672
2019-05-19T07:17:38.663Z,64320
2019-05-19T07:18:38.884Z,65152
2019-05-19T07:19:38.896Z,67104
2019-05-19T07:20:38.908Z,65824
2019-05-19T07:21:38.936Z,63712
2019-05-19T07:22:42.014Z,60064
2019-05-19T07:23:38.981Z,53856
2019-05-19T07:24:38.967Z,51040
2019-05-19T07:25:38.994Z,51360
2019-05-19T07:26:39.017Z,53952
2019-05-19T07:27:39.029Z,54240
2019-05-19T07:28:39.030Z,39456
2019-05-19T07:29:39.064Z,41376
2019-05-19T07:30:39.065Z,37504
2019-05-19T07:31:38.844Z,47360
2019-05-19T07:32:39.110Z,56288
2019-05-19T07:33:39.109Z,55520
2019-05-19T07:34:39.134Z,37184
2019-05-19T07:35:39.166Z,54336
2019-05-19T07:36:39.177Z,46912
2019-05-19T07:37:39.177Z,68288
2019-05-19T07:38:39.194Z,52736
2019-05-19T07:39:39.223Z,37088
2019-05-19T07:40:39.223Z,32000
2019-05-19T07:41:39.227Z,40800
2019-05-19T07:42:39.255Z,41440
2019-05-19T07:43:39.265Z,54560
2019-05-19T07:44:39.268Z,48096
2019-05-19T07:45:39.288Z,65120
2019-05-19T07:46:39.305Z,59072
2019-05-19T07:47:39.310Z,38144
2019-05-19T07:48:39.335Z,31840
2019-05-19T07:49:39.359Z,33568
2019-05-19T07:50:42.826Z,30368
2019-05-19T07:51:39.363Z,32448
2019-05-19T07:52:39.593Z,34816
2019-05-19T07:53:49.156Z,31936
2019-05-19T07:54:39.407Z,34496
2019-05-19T07:55:39.421Z,33856
2019-05-19T07:56:39.428Z,38400
2019-05-19T07:57:39.451Z,47776
2019-05-19T07:58:39.511Z,31616
2019-05-19T07:59:39.465Z,28928
2019-05-19T08:00:39.341Z,27776
2019-05-19T08:01:39.501Z,30048
2019-05-19T08:02:39.565Z,27328
2019-05-19T08:03:39.641Z,28224
2019-05-19T08:04:41.607Z,27680
2019-05-19T08:05:39.621Z,24928
2019-05-19T08:06:39.322Z,22720
2019-05-19T08:07:39.402Z,20736
2019-05-19T08:08:39.750Z,22080
2019-05-19T08:09:39.618Z,85280
2019-05-19T08:10:39.583Z,40768
2019-05-19T08:11:39.595Z,27232
2019-05-19T08:12:42.093Z,74464
2019-05-19T08:13:39.614Z,73664
2019-05-19T08:14:40.832Z,74528
2019-05-19T08:15:39.677Z,78688
2019-05-19T08:16:39.642Z,73440
2019-05-19T08:18:00.732Z,71168
2019-05-19T08:18:39.700Z,66496
2019-05-19T08:19:39.671Z,63488
2019-05-19T08:20:39.681Z,69760
2019-05-19T08:21:41.166Z,69760
2019-05-19T08:22:39.698Z,71680
2019-05-19T08:23:39.475Z,73728
2019-05-19T08:24:39.726Z,67072
2019-05-19T08:25:39.760Z,66592
2019-05-19T08:26:39.742Z,68320
2019-05-19T08:27:39.772Z,70432
2019-05-19T08:28:39.755Z,67616
2019-05-19T08:29:39.764Z,70368
2019-05-19T08:30:41.120Z,67168
2019-05-19T08:31:39.812Z,64576
2019-05-19T08:32:39.828Z,71232
2019-05-19T08:33:39.901Z,81216
2019-05-19T08:34:39.814Z,85952
2019-05-19T08:35:39.901Z,81504
2019-05-19T08:36:39.591Z,66304
2019-05-19T08:37:39.857Z,57824
2019-05-19T08:38:39.894Z,60128
2019-05-19T08:39:39.880Z,61504
2019-05-19T08:40:39.993Z,59552
2019-05-19T08:41:39.887Z,54880
2019-05-19T08:42:39.902Z,52736
2019-05-19T08:43:39.936Z,59360
2019-05-19T08:44:39.936Z,69376
2019-05-19T08:45:39.933Z,55904
2019-05-19T08:46:39.957Z,29184
2019-05-19T08:47:39.981Z,14736
2019-05-19T08:48:39.985Z,14096
2019-05-19T08:49:40.005Z,13824
2019-05-19T08:50:40.044Z,13644
2019-05-19T08:51:40.012Z,13496
2019-05-19T08:52:39.998Z,13344
2019-05-19T08:53:40.006Z,13296
2019-05-19T08:54:41.285Z,13280
2019-05-19T08:55:40.037Z,13260
2019-05-19T08:56:42.514Z,13180
2019-05-19T08:57:40.088Z,13072
2019-05-19T08:58:40.057Z,12968
2019-05-19T08:59:40.075Z,12836
2019-05-19T09:00:45.158Z,12712
2019-05-19T09:01:40.059Z,12600
2019-05-19T09:02:40.063Z,12516
2019-05-19T09:03:41.344Z,12464
2019-05-19T09:04:40.087Z,12496
2019-05-19T09:05:40.084Z,12556
2019-05-19T09:06:39.842Z,12608
2019-05-19T09:07:40.094Z,12648
2019-05-19T09:08:40.138Z,12672
2019-05-19T09:09:40.129Z,12632
2019-05-19T09:10:39.876Z,12540
2019-05-19T09:11:40.223Z,12360
2019-05-19T09:12:40.242Z,12256
2019-05-19T09:13:40.133Z,12236
2019-05-19T09:14:40.106Z,12252
2019-05-19T09:15:40.100Z,12284
2019-05-19T09:16:40.122Z,12268
2019-05-19T09:17:40.116Z,12208
2019-05-19T09:18:40.107Z,12132
2019-05-19T09:19:40.113Z,12052
2019-05-19T09:20:40.112Z,12008
2019-05-19T09:21:40.176Z,12000
2019-05-19T09:22:40.126Z,12016
2019-05-19T09:23:40.116Z,12068
2019-05-19T09:24:42.067Z,12156
2019-05-19T09:25:40.116Z,12244
2019-05-19T09:26:40.177Z,12324
2019-05-19T09:27:40.160Z,12412
2019-05-19T09:28:40.147Z,12468
2019-05-19T09:29:40.124Z,12440
2019-05-19T09:30:40.122Z,12328
2019-05-19T09:31:43.693Z,12192
2019-05-19T09:32:40.132Z,12120
2019-05-19T09:33:41.816Z,12024
2019-05-19T09:34:41.809Z,11880
2019-05-19T09:35:40.130Z,11808
2019-05-19T09:36:40.122Z,11776
2019-05-19T09:37:40.126Z,11756
2019-05-19T09:38:40.211Z,11728
2019-05-19T09:39:40.127Z,11804
2019-05-19T09:40:40.134Z,11980
2019-05-19T09:41:40.129Z,12304
2019-05-19T09:42:40.164Z,12696
2019-05-19T09:43:40.128Z,13152
2019-05-19T09:44:40.131Z,13340
2019-05-19T09:45:40.143Z,13112
2019-05-19T09:46:40.132Z,12480
2019-05-19T09:47:40.302Z,11864
2019-05-19T09:48:40.203Z,11460
2019-05-19T09:49:40.145Z,11380
2019-05-19T09:50:40.139Z,11492
2019-05-19T09:51:40.139Z,11364
2019-05-19T09:52:40.160Z,10988
2019-05-19T09:53:40.151Z,10732
2019-05-19T09:54:51.277Z,10660
2019-05-19T09:55:40.136Z,10684
2019-05-19T09:56:39.908Z,11060
2019-05-19T09:57:39.906Z,11212
2019-05-19T09:58:40.146Z,10960
2019-05-19T09:59:40.154Z,10784
2019-05-19T10:00:40.145Z,10376
2019-05-19T10:01:40.144Z,10340
2019-05-19T10:02:40.179Z,10572
2019-05-19T10:03:40.177Z,10656
2019-05-19T10:04:40.147Z,10952
2019-05-19T10:05:40.148Z,11272
2019-05-19T10:06:40.179Z,10904
2019-05-19T10:07:40.160Z,10260
2019-05-19T10:08:40.146Z,9772
2019-05-19T10:09:40.151Z,9684
2019-05-19T10:10:40.152Z,9656
2019-05-19T10:11:40.187Z,9640
2019-05-19T10:12:40.146Z,9756
2019-05-19T10:13:42.580Z,9772
2019-05-19T10:14:40.151Z,9748
2019-05-19T10:15:40.149Z,9504
2019-05-19T10:16:40.153Z,9932
2019-05-19T10:17:40.163Z,10392
2019-05-19T10:18:40.213Z,10884
2019-05-19T10:19:39.946Z,11652
2019-05-19T10:20:40.157Z,12520
2019-05-19T10:21:40.159Z,13908
2019-05-19T10:22:40.685Z,14444
2019-05-19T10:23:40.159Z,14712
2019-05-19T10:24:40.177Z,14376
2019-05-19T10:25:40.159Z,15060
2019-05-19T10:26:40.168Z,15408
2019-05-19T10:27:40.165Z,15052
2019-05-19T10:28:40.178Z,15652
2019-05-19T10:29:40.215Z,16240
2019-05-19T10:30:40.165Z,17216
2019-05-19T10:31:40.196Z,18272
2019-05-19T10:32:40.190Z,18560
2019-05-19T10:33:40.174Z,18528
2019-05-19T10:34:40.186Z,18624
2019-05-19T10:35:40.191Z,18496
2019-05-19T10:36:40.185Z,18848
2019-05-19T10:37:40.180Z,19552
2019-05-19T10:38:40.186Z,19296
2019-05-19T10:39:40.198Z,18912
2019-05-19T10:40:40.188Z,19008
2019-05-19T10:41:40.243Z,20000
2019-05-19T10:42:40.221Z,19968
2019-05-19T10:43:40.197Z,19392
2019-05-19T10:44:40.235Z,18560
2019-05-19T10:45:39.956Z,17984
2019-05-19T10:46:40.203Z,17088
2019-05-19T10:47:40.232Z,16356
2019-05-19T10:48:40.237Z,16172
2019-05-19T10:49:42.832Z,16012
2019-05-19T10:50:40.213Z,15136
2019-05-19T10:51:40.262Z,14600
2019-05-19T10:52:40.262Z,14120
2019-05-19T10:53:40.221Z,13676
2019-05-19T10:54:40.326Z,13492
2019-05-19T10:55:43.861Z,14012
2019-05-19T10:56:40.282Z,14500
2019-05-19T10:57:40.259Z,14828
2019-05-19T10:58:40.235Z,14212
2019-05-19T10:59:40.245Z,14800
2019-05-19T11:00:40.291Z,14856
2019-05-19T11:01:40.253Z,14536
2019-05-19T11:02:40.259Z,13928
2019-05-19T11:03:40.254Z,14136
2019-05-19T11:04:40.262Z,14864
2019-05-19T11:05:40.263Z,15012
2019-05-19T11:06:40.024Z,12872
2019-05-19T11:07:40.267Z,11988
2019-05-19T11:08:40.354Z,11552
2019-05-19T11:09:40.274Z,10608
2019-05-19T11:10:40.046Z,9184
2019-05-19T11:11:40.284Z,8500
2019-05-19T11:12:40.301Z,8868
2019-05-19T11:13:40.291Z,9960
2019-05-19T11:14:40.301Z,11244
2019-05-19T11:15:40.360Z,11944
2019-05-19T11:16:40.349Z,12592
2019-05-19T11:17:40.356Z,13596
2019-05-19T11:18:40.304Z,14020
2019-05-19T11:19:40.140Z,13972
2019-05-19T11:20:40.364Z,13880
2019-05-19T11:21:40.307Z,14144
2019-05-19T11:22:40.327Z,15152
2019-05-19T11:23:40.322Z,15996
2019-05-19T11:24:40.315Z,16160
2019-05-19T11:25:55.892Z,15564
2019-05-19T11:26:40.323Z,15416
2019-05-19T11:27:40.331Z,14628
2019-05-19T11:28:40.332Z,13704
2019-05-19T11:29:40.327Z,13340
2019-05-19T11:30:40.175Z,13124
2019-05-19T11:31:40.335Z,12584
2019-05-19T11:32:40.346Z,12244
2019-05-19T11:33:40.367Z,11876
2019-05-19T11:34:40.354Z,11712
2019-05-19T11:35:40.381Z,10816
2019-05-19T11:36:40.352Z,10888
2019-05-19T11:37:40.352Z,10788
2019-05-19T11:38:40.374Z,10688
2019-05-19T11:39:40.351Z,10632
2019-05-19T11:40:40.366Z,10108
2019-05-19T11:41:40.366Z,9640
2019-05-19T11:42:40.385Z,9372
2019-05-19T11:43:40.363Z,9516
2019-05-19T11:44:40.457Z,9332
2019-05-19T11:45:40.372Z,9180
2019-05-19T11:46:40.494Z,9580
2019-05-19T11:47:40.382Z,10412
2019-05-19T11:48:40.399Z,10900
2019-05-19T11:49:40.389Z,10364
2019-05-19T11:50:44.349Z,9520
2019-05-19T11:51:40.397Z,8992
2019-05-19T11:52:40.387Z,8444
2019-05-19T11:53:40.388Z,8836
2019-05-19T11:54:40.400Z,9324
2019-05-19T11:55:40.392Z,9528
2019-05-19T11:56:40.154Z,9408
2019-05-19T11:57:40.401Z,9268
2019-05-19T11:58:40.457Z,9480
2019-05-19T11:59:40.396Z,9640
2019-05-19T12:00:40.411Z,9516
2019-05-19T12:01:40.418Z,10008
2019-05-19T12:02:40.401Z,11004
2019-05-19T12:03:40.475Z,11176
2019-05-19T12:04:40.646Z,10668
2019-05-19T12:05:40.458Z,10340
2019-05-19T12:06:46.873Z,9704
2019-05-19T12:07:40.419Z,9516
2019-05-19T12:08:40.419Z,9164
2019-05-19T12:09:40.425Z,8704
2019-05-19T12:10:40.425Z,8676
2019-05-19T12:11:40.231Z,8440
2019-05-19T12:12:40.471Z,8240
2019-05-19T12:13:42.219Z,7860
2019-05-19T12:14:40.178Z,7564
2019-05-19T12:15:40.417Z,7408
2019-05-19T12:16:40.443Z,7388
2019-05-19T12:17:40.420Z,7396
2019-05-19T12:18:40.466Z,7396
2019-05-19T12:19:40.429Z,7524
2019-05-19T12:20:40.478Z,7832
2019-05-19T12:21:40.434Z,8248
2019-05-19T12:22:40.436Z,8700
2019-05-19T12:23:40.425Z,9360
2019-05-19T12:24:40.569Z,9784
2019-05-19T12:25:40.572Z,10416
2019-05-19T12:26:42.102Z,11272
2019-05-19T12:27:40.434Z,11308
2019-05-19T12:28:40.443Z,11020
2019-05-19T12:29:40.205Z,11212
2019-05-19T12:30:40.440Z,11868
2019-05-19T12:31:40.438Z,12184
2019-05-19T12:32:40.296Z,12484
2019-05-19T12:33:55.577Z,12032
2019-05-19T12:34:40.439Z,11720
2019-05-19T12:35:40.530Z,11116
2019-05-19T12:36:40.447Z,11320
2019-05-19T12:37:40.442Z,11456
2019-05-19T12:38:40.457Z,11344
2019-05-19T12:39:40.216Z,11080
2019-05-19T12:40:40.447Z,10740
2019-05-19T12:41:40.278Z,10516
2019-05-19T12:42:40.456Z,10408
2019-05-19T12:43:40.457Z,10580
2019-05-19T12:44:40.475Z,11164
2019-05-19T12:45:40.571Z,12088
2019-05-19T12:46:40.463Z,13492
2019-05-19T12:47:40.511Z,14936
2019-05-19T12:48:40.538Z,15624
2019-05-19T12:49:40.476Z,15124
2019-05-19T12:50:40.477Z,15032
2019-05-19T12:51:40.483Z,15264
2019-05-19T12:52:40.468Z,14284
2019-05-19T12:53:40.480Z,12808
2019-05-19T12:54:40.568Z,11564
2019-05-19T12:55:40.476Z,10716
2019-05-19T12:56:47.135Z,10232
2019-05-19T12:57:40.492Z,10272
2019-05-19T12:58:40.526Z,9868
2019-05-19T12:59:40.489Z,9664
2019-05-19T13:00:40.510Z,9384
2019-05-19T13:01:40.505Z,9488
2019-05-19T13:02:42.698Z,9616
2019-05-19T13:03:40.491Z,9120
2019-05-19T13:04:40.578Z,8456
2019-05-19T13:05:40.497Z,8320
2019-05-19T13:06:40.505Z,8468
2019-05-19T13:07:40.513Z,8692
2019-05-19T13:08:40.518Z,9032
2019-05-19T13:09:40.512Z,9624
2019-05-19T13:10:40.267Z,9820
2019-05-19T13:11:40.514Z,10100
2019-05-19T13:12:40.520Z,10156
2019-05-19T13:13:40.579Z,10200
2019-05-19T13:14:40.521Z,10472
2019-05-19T13:15:40.526Z,10980
2019-05-19T13:16:40.521Z,11360
2019-05-19T13:17:40.524Z,11972
2019-05-19T13:18:40.530Z,12384
2019-05-19T13:19:40.608Z,12268
2019-05-19T13:20:40.534Z,12404
2019-05-19T13:21:40.798Z,12664
2019-05-19T13:22:40.415Z,13084
2019-05-19T13:23:40.626Z,13544